createdAt,value
2019-04-28T00:01:14.245Z,6.40
2019-04-28T00:03:47.621Z,6.50
2019-04-28T00:06:21.118Z,6.15
2019-04-28T00:08:53.889Z,6.20
2019-04-28T00:11:26.680Z,6.22
2019-04-28T00:13:59.381Z,5.97
2019-04-28T00:16:33.783Z,6.62
2019-04-28T00:19:07.182Z,6.37
2019-04-28T00:21:41.583Z,6.47
2019-04-28T00:24:15.608Z,6.20
2019-04-28T00:26:51.941Z,6.12
2019-04-28T00:29:37.242Z,5.90
2019-04-28T00:32:01.071Z,6.78
2019-04-28T00:37:06.371Z,6.45
2019-04-28T00:39:40.968Z,6.65
2019-04-28T00:42:14.501Z,6.10
2019-04-28T00:44:47.370Z,6.33
2019-04-28T00:47:21.056Z,6.45
2019-04-28T00:49:53.908Z,6.28
2019-04-28T00:52:26.518Z,5.35
2019-04-28T00:55:01.095Z,6.30
2019-04-28T00:57:33.570Z,6.40
2019-04-28T01:00:08.069Z,6.05
2019-04-28T01:02:43.218Z,6.10
2019-04-28T01:05:16.702Z,6.40
2019-04-28T01:07:51.026Z,6.50
2019-04-28T01:10:24.951Z,6.03
2019-04-28T01:12:58.201Z,7.12
2019-04-28T01:15:32.336Z,6.12
2019-04-28T01:18:05.610Z,7.62
2019-04-28T01:20:39.643Z,7.47
2019-04-28T01:23:14.122Z,7.15
2019-04-28T01:25:46.761Z,7.17
2019-04-28T01:28:21.462Z,7.60
2019-04-28T01:30:55.889Z,6.87
2019-04-28T01:33:30.400Z,6.90
2019-04-28T01:36:03.139Z,7.70
2019-04-28T01:38:35.775Z,7.05
2019-04-28T01:41:09.864Z,6.70
2019-04-28T01:43:44.610Z,8.63
2019-04-28T01:46:19.799Z,6.67
2019-04-28T01:48:52.233Z,24.27
2019-04-28T01:51:25.143Z,9.90
2019-04-28T01:54:00.107Z,7.40
2019-04-28T01:56:32.694Z,7.20
2019-04-28T01:59:05.592Z,11.30
2019-04-28T02:01:39.873Z,10.32
2019-04-28T02:04:12.125Z,11.05
2019-04-28T02:06:46.410Z,8.80
2019-04-28T02:09:19.551Z,7.50
2019-04-28T02:11:52.156Z,7.55
2019-04-28T02:14:25.173Z,7.22
2019-04-28T02:17:00.366Z,7.15
2019-04-28T02:19:33.198Z,8.10
2019-04-28T02:22:08.214Z,9.07
2019-04-28T02:27:13.285Z,8.43
2019-04-28T02:29:47.277Z,7.35
2019-04-28T02:32:21.255Z,7.40
2019-04-28T02:34:54.890Z,8.03
2019-04-28T02:37:30.345Z,7.70
2019-04-28T02:40:03.505Z,7.42
2019-04-28T02:42:36.614Z,6.58
2019-04-28T02:45:11.882Z,7.20
2019-04-28T02:47:46.352Z,6.62
2019-04-28T02:50:21.178Z,7.65
2019-04-28T02:52:55.502Z,6.72
2019-04-28T02:55:31.377Z,6.90
2019-04-28T02:58:03.642Z,6.35
2019-04-28T03:00:36.321Z,7.35
2019-04-28T03:03:11.256Z,7.30
2019-04-28T03:05:44.579Z,7.42
2019-04-28T03:08:17.683Z,7.00
2019-04-28T03:10:50.975Z,8.05
2019-04-28T03:13:24.431Z,7.55
2019-04-28T03:15:57.620Z,7.33
2019-04-28T03:18:31.845Z,7.45
2019-04-28T03:21:05.121Z,9.23
2019-04-28T03:23:40.547Z,7.95
2019-04-28T03:28:47.455Z,6.92
2019-04-28T03:31:55.219Z,8.08
2019-04-28T03:33:56.794Z,7.33
2019-04-28T03:36:33.426Z,7.22
2019-04-28T03:39:11.064Z,7.37
2019-04-28T03:41:45.993Z,8.88
2019-04-28T03:44:20.811Z,8.80
2019-04-28T03:46:54.847Z,8.15
2019-04-28T03:49:30.738Z,7.87
2019-04-28T03:52:10.773Z,8.18
2019-04-28T03:54:43.834Z,7.83
2019-04-28T03:57:17.292Z,7.85
2019-04-28T03:59:51.570Z,7.47
2019-04-28T04:02:24.424Z,6.80
2019-04-28T04:05:03.898Z,7.08
2019-04-28T04:07:35.003Z,7.65
2019-04-28T04:10:12.813Z,6.75
2019-04-28T04:12:50.882Z,6.75
2019-04-28T04:15:25.746Z,7.03
2019-04-28T04:18:01.329Z,9.03
2019-04-28T04:20:34.404Z,9.05
2019-04-28T04:23:07.542Z,8.05
2019-04-28T04:25:42.883Z,7.65
2019-04-28T04:28:16.748Z,14.07
2019-04-28T04:30:50.857Z,9.30
2019-04-28T04:33:26.942Z,8.65
2019-04-28T04:36:01.578Z,7.55
2019-04-28T04:38:38.112Z,6.97
2019-04-28T04:41:11.353Z,8.13
2019-04-28T04:43:47.487Z,7.33
2019-04-28T04:46:22.968Z,7.65
2019-04-28T04:48:56.537Z,8.08
2019-04-28T04:51:31.615Z,8.40
2019-04-28T04:54:04.913Z,7.57
2019-04-28T04:56:40.160Z,7.33
2019-04-28T04:59:14.905Z,7.40
2019-04-28T05:01:51.502Z,6.97
2019-04-28T05:04:27.264Z,7.35
2019-04-28T05:07:01.374Z,7.55
2019-04-28T05:09:34.752Z,8.85
2019-04-28T05:12:09.672Z,7.72
2019-04-28T05:14:44.084Z,8.23
2019-04-28T05:17:17.984Z,8.20
2019-04-28T05:19:51.448Z,7.65
2019-04-28T05:22:26.823Z,8.08
2019-04-28T05:25:02.614Z,7.90
2019-04-28T05:27:36.357Z,8.30
2019-04-28T05:30:13.726Z,8.27
2019-04-28T05:32:53.617Z,7.92
2019-04-28T05:35:25.244Z,8.18
2019-04-28T05:37:59.774Z,8.18
2019-04-28T05:40:35.180Z,8.85
2019-04-28T05:43:08.493Z,7.70
2019-04-28T05:45:41.734Z,8.30
2019-04-28T05:48:19.990Z,8.40
2019-04-28T05:50:55.107Z,8.20
2019-04-28T05:53:31.202Z,8.43
2019-04-28T05:56:17.026Z,8.10
2019-04-28T05:58:53.109Z,8.55
2019-04-28T06:01:27.067Z,8.43
2019-04-28T06:04:03.064Z,8.73
2019-04-28T06:06:38.712Z,9.78
2019-04-28T06:09:15.091Z,9.23
2019-04-28T06:11:54.254Z,8.70
2019-04-28T06:14:26.081Z,8.48
2019-04-28T06:17:03.955Z,8.70
2019-04-28T06:19:36.199Z,8.70
2019-04-28T06:22:10.929Z,8.38
2019-04-28T06:24:46.714Z,8.73
2019-04-28T06:27:20.322Z,8.40
2019-04-28T06:29:54.057Z,7.97
2019-04-28T06:32:28.083Z,8.53
2019-04-28T06:35:01.496Z,8.33
2019-04-28T06:37:36.962Z,8.45
2019-04-28T06:40:11.196Z,8.30
2019-04-28T06:42:47.572Z,8.73
2019-04-28T06:45:21.682Z,8.60
2019-04-28T06:47:55.174Z,8.67
2019-04-28T06:50:31.092Z,8.80
2019-04-28T06:53:08.097Z,9.05
2019-04-28T06:55:42.686Z,8.80
2019-04-28T06:58:16.876Z,8.75
2019-04-28T07:00:50.386Z,8.15
2019-04-28T07:03:24.357Z,9.38
2019-04-28T07:05:57.860Z,7.95
2019-04-28T07:08:31.643Z,7.95
2019-04-28T07:11:06.484Z,8.78
2019-04-28T07:16:15.052Z,8.55
2019-04-28T07:18:48.449Z,9.70
2019-04-28T07:21:23.507Z,8.63
2019-04-28T07:23:59.088Z,8.98
2019-04-28T07:26:34.651Z,9.50
2019-04-28T07:29:10.800Z,9.43
2019-04-28T07:31:45.935Z,9.08
2019-04-28T07:34:21.436Z,9.33
2019-04-28T07:36:56.732Z,9.20
2019-04-28T07:39:30.131Z,9.45
2019-04-28T07:42:04.050Z,8.80
2019-04-28T07:44:38.545Z,8.57
2019-04-28T07:47:13.275Z,8.83
2019-04-28T07:49:47.283Z,8.85
2019-04-28T07:52:23.325Z,8.65
2019-04-28T07:54:57.533Z,9.15
2019-04-28T08:00:06.034Z,8.98
2019-04-28T08:02:42.673Z,10.18
2019-04-28T08:05:19.165Z,9.18
2019-04-28T08:07:53.579Z,9.30
2019-04-28T08:10:27.193Z,10.40
2019-04-28T08:13:01.573Z,9.63
2019-04-28T08:18:07.804Z,9.73
2019-04-28T08:20:40.967Z,10.97
2019-04-28T08:23:14.688Z,10.20
2019-04-28T08:25:48.932Z,10.60
2019-04-28T08:28:24.092Z,10.25
2019-04-28T08:31:00.981Z,11.03
2019-04-28T08:33:38.087Z,11.30
2019-04-28T08:36:13.709Z,10.65
2019-04-28T08:38:47.211Z,11.00
2019-04-28T08:41:21.927Z,12.23
2019-04-28T08:43:56.373Z,10.88
2019-04-28T08:46:31.243Z,11.28
2019-04-28T08:51:44.016Z,10.53
2019-04-28T08:54:18.345Z,10.82
2019-04-28T08:56:53.521Z,11.15
2019-04-28T08:59:28.691Z,11.10
2019-04-28T09:02:03.008Z,10.30
2019-04-28T09:04:40.351Z,10.72
2019-04-28T09:07:13.573Z,10.80
2019-04-28T09:09:48.180Z,11.22
2019-04-28T09:14:55.245Z,10.60
2019-04-28T09:17:29.818Z,10.72
2019-04-28T09:20:03.423Z,16.45
2019-04-28T09:22:38.438Z,13.08
2019-04-28T09:25:12.303Z,14.13
2019-04-28T09:27:45.406Z,13.55
2019-04-28T09:30:19.280Z,12.93
2019-04-28T09:32:52.571Z,14.07
2019-04-28T09:35:26.134Z,11.63
2019-04-28T09:37:59.785Z,12.70
2019-04-28T09:40:34.442Z,13.28
2019-04-28T09:43:10.648Z,12.23
2019-04-28T09:45:45.170Z,10.98
2019-04-28T09:48:18.192Z,11.10
2019-04-28T09:50:51.998Z,14.05
2019-04-28T09:53:27.431Z,11.43
2019-04-28T09:56:00.946Z,12.60
2019-04-28T09:58:34.581Z,11.78
2019-04-28T10:01:08.057Z,11.90
2019-04-28T10:03:41.691Z,11.78
2019-04-28T10:06:16.091Z,13.10
2019-04-28T10:08:49.271Z,9.35
2019-04-28T10:11:30.268Z,12.45
2019-04-28T10:13:57.368Z,14.07
2019-04-28T10:16:30.797Z,12.65
2019-04-28T10:19:03.985Z,13.13
2019-04-28T10:21:38.358Z,14.45
2019-04-28T10:24:12.444Z,9.80
2019-04-28T10:26:44.956Z,10.60
2019-04-28T10:29:18.317Z,17.60
2019-04-28T10:31:51.274Z,15.23
2019-04-28T10:34:25.015Z,22.15
2019-04-28T10:36:59.673Z,13.13
2019-04-28T10:39:34.548Z,10.82
2019-04-28T10:42:08.783Z,10.95
2019-04-28T10:44:44.620Z,11.12
2019-04-28T10:47:19.259Z,11.50
2019-04-28T10:49:53.883Z,12.43
2019-04-28T10:52:29.017Z,10.58
2019-04-28T10:55:05.165Z,10.85
2019-04-28T10:57:38.216Z,10.63
2019-04-28T11:00:14.230Z,9.55
2019-04-28T11:02:47.796Z,11.55
2019-04-28T11:05:21.685Z,10.25
2019-04-28T11:07:56.546Z,10.05
2019-04-28T11:10:30.659Z,9.88
2019-04-28T11:13:05.732Z,10.88
2019-04-28T11:15:40.349Z,11.05
2019-04-28T11:18:16.728Z,10.90
2019-04-28T11:20:52.987Z,10.30
2019-04-28T11:23:26.489Z,11.25
2019-04-28T11:26:02.436Z,12.47
2019-04-28T11:28:37.885Z,11.12
2019-04-28T11:31:13.493Z,11.65
2019-04-28T11:33:48.362Z,10.80
2019-04-28T11:36:24.118Z,10.98
2019-04-28T11:38:58.631Z,11.57
2019-04-28T11:41:32.650Z,11.10
2019-04-28T11:44:06.853Z,14.23
2019-04-28T11:46:41.018Z,12.65
2019-04-28T11:49:21.001Z,11.22
2019-04-28T11:51:54.593Z,11.20
2019-04-28T11:54:28.933Z,11.05
2019-04-28T11:57:02.783Z,9.98
2019-04-28T11:59:38.967Z,10.58
2019-04-28T12:02:12.479Z,10.65
2019-04-28T12:04:46.451Z,10.58
2019-04-28T12:07:20.980Z,10.72
2019-04-28T12:10:04.501Z,10.13
2019-04-28T12:12:32.255Z,11.25
2019-04-28T12:15:07.994Z,10.20
2019-04-28T12:17:43.722Z,10.65
2019-04-28T12:20:20.316Z,10.25
2019-04-28T12:22:53.695Z,10.00
2019-04-28T12:25:28.150Z,17.87
2019-04-28T12:28:02.297Z,16.82
2019-04-28T12:30:36.634Z,10.82
2019-04-28T12:33:11.542Z,11.50
2019-04-28T12:35:47.916Z,13.75
2019-04-28T12:38:22.496Z,10.13
2019-04-28T12:40:59.140Z,11.08
2019-04-28T12:43:35.014Z,10.53
2019-04-28T12:46:11.384Z,12.15
2019-04-28T12:48:45.997Z,12.35
2019-04-28T12:51:20.122Z,11.12
2019-04-28T12:53:55.947Z,10.45
2019-04-28T12:56:36.002Z,11.43
2019-04-28T12:59:12.069Z,11.18
2019-04-28T13:01:48.037Z,11.15
2019-04-28T13:04:23.153Z,11.40
2019-04-28T13:07:01.065Z,9.90
2019-04-28T13:09:36.521Z,8.93
2019-04-28T13:12:10.319Z,9.08
2019-04-28T13:14:43.928Z,7.97
2019-04-28T13:17:18.012Z,4.53
2019-04-28T13:19:54.076Z,2.80
2019-04-28T13:22:29.818Z,2.95
2019-04-28T13:25:03.889Z,3.65
2019-04-28T13:27:41.036Z,3.47
2019-04-28T13:30:18.268Z,4.17
2019-04-28T13:32:58.476Z,3.58
2019-04-28T13:35:33.600Z,3.60
2019-04-28T13:38:13.803Z,3.37
2019-04-28T13:40:51.532Z,3.22
2019-04-28T13:46:27.836Z,2.55
2019-04-28T13:49:07.229Z,4.55
2019-04-28T13:51:47.123Z,3.35
2019-04-28T13:54:35.920Z,3.40
2019-04-28T13:57:11.548Z,3.83
2019-04-28T13:59:46.565Z,3.92
2019-04-28T14:02:24.761Z,3.00
2019-04-28T14:04:59.595Z,2.60
2019-04-28T14:07:35.291Z,3.00
2019-04-28T14:10:10.996Z,2.77
2019-04-28T14:12:46.660Z,2.52
2019-04-28T14:15:20.457Z,2.47
2019-04-28T14:17:54.267Z,2.77
2019-04-28T14:20:29.710Z,2.47
2019-04-28T14:23:03.709Z,3.47
2019-04-28T14:25:41.723Z,4.70
2019-04-28T14:28:15.751Z,3.25
2019-04-28T14:31:03.481Z,3.00
2019-04-28T14:33:53.267Z,2.95
2019-04-28T14:36:41.458Z,3.05
2019-04-28T14:39:14.065Z,2.85
2019-04-28T14:41:58.192Z,2.70
2019-04-28T14:44:41.020Z,2.87
2019-04-28T14:50:08.607Z,7.55
2019-04-28T14:52:45.780Z,10.05
2019-04-28T16:41:39.075Z,7.20
2019-04-28T16:44:13.797Z,5.87
2019-04-28T16:49:18.326Z,5.00
2019-04-28T16:51:51.161Z,5.60
2019-04-28T16:54:24.499Z,5.00
2019-04-28T16:57:00.593Z,4.95
2019-04-28T16:59:35.895Z,5.42
2019-04-28T17:02:10.426Z,5.45
2019-04-28T17:04:44.148Z,4.87
2019-04-28T17:07:17.683Z,5.50
2019-04-28T17:09:51.497Z,6.45
2019-04-28T17:12:24.308Z,7.30
2019-04-28T17:14:57.088Z,7.87
2019-04-28T17:17:30.283Z,7.33
2019-04-28T17:20:03.479Z,8.00
2019-04-28T17:22:38.508Z,8.33
2019-04-28T17:25:11.418Z,7.75
2019-04-28T17:27:44.596Z,7.92
2019-04-28T17:30:19.512Z,8.80
2019-04-28T17:32:53.228Z,8.73
2019-04-28T17:35:25.771Z,9.05
2019-04-28T17:38:06.429Z,8.30
2019-04-28T17:40:33.396Z,8.45
2019-04-28T17:43:06.281Z,8.15
2019-04-28T17:45:40.026Z,7.62
2019-04-28T17:48:14.204Z,6.80
2019-04-28T17:50:48.638Z,6.20
2019-04-28T17:53:22.215Z,6.45
2019-04-28T17:55:55.116Z,6.92
2019-04-28T17:58:27.525Z,6.60
2019-04-28T18:01:02.613Z,6.95
2019-04-28T18:03:36.721Z,5.75
2019-04-28T18:06:17.476Z,5.67
2019-04-28T18:08:44.610Z,5.83
2019-04-28T18:11:19.060Z,5.87
2019-04-28T18:13:52.775Z,5.60
2019-04-28T18:16:28.721Z,6.78
2019-04-28T18:19:01.196Z,8.08
2019-04-28T18:21:34.030Z,8.20
2019-04-28T18:24:06.592Z,7.30
2019-04-28T18:26:39.121Z,7.33
2019-04-28T18:29:11.846Z,7.20
2019-04-28T18:31:44.311Z,6.97
2019-04-28T18:34:18.592Z,7.60
2019-04-28T18:36:53.422Z,6.33
2019-04-28T18:42:00.421Z,6.17
2019-04-28T18:44:32.798Z,5.45
2019-04-28T18:47:05.473Z,5.28
2019-04-28T18:49:37.882Z,6.03
2019-04-28T18:52:10.628Z,5.42
2019-04-28T18:54:43.610Z,6.85
2019-04-28T18:57:16.799Z,8.55
2019-04-28T18:59:50.093Z,7.35
2019-04-28T19:02:24.614Z,7.47
2019-04-28T19:07:30.281Z,6.80
2019-04-28T19:10:04.499Z,7.05
2019-04-28T19:12:39.633Z,7.83
2019-04-28T19:15:14.362Z,7.22
2019-04-28T19:20:19.736Z,7.15
2019-04-28T19:22:52.525Z,7.35
2019-04-28T19:25:24.869Z,6.87
2019-04-28T19:27:57.646Z,7.15
2019-04-28T19:30:31.424Z,7.37
2019-04-28T19:33:04.836Z,8.83
2019-04-28T19:35:37.413Z,8.05
2019-04-28T19:38:10.050Z,7.58
2019-04-28T19:40:42.800Z,8.45
2019-04-28T19:43:15.321Z,8.28
2019-04-28T19:45:49.372Z,8.20
2019-04-28T19:48:21.734Z,8.78
2019-04-28T19:50:54.128Z,7.85
2019-04-28T19:53:28.123Z,8.23
2019-04-28T19:56:02.234Z,8.20
2019-04-28T19:58:37.269Z,8.15
2019-04-28T20:01:12.402Z,8.05
2019-04-28T20:03:44.994Z,8.08
2019-04-28T20:06:17.301Z,7.72
2019-04-28T20:08:49.780Z,8.53
2019-04-28T20:11:22.738Z,8.38
2019-04-28T20:13:55.532Z,7.78
2019-04-28T20:16:27.862Z,7.35
2019-04-28T20:19:00.687Z,7.80
2019-04-28T20:21:33.623Z,8.58
2019-04-28T20:24:06.532Z,8.23
2019-04-28T20:26:38.933Z,8.50
2019-04-28T20:29:11.263Z,9.00
2019-04-28T20:31:43.670Z,8.58
2019-04-28T20:34:16.304Z,8.65
2019-04-28T20:36:50.317Z,8.83
2019-04-28T20:39:24.431Z,8.45
2019-04-28T20:41:58.746Z,8.00
2019-04-28T20:44:31.841Z,9.13
2019-04-28T20:47:05.233Z,8.35
2019-04-28T20:49:38.323Z,8.15
2019-04-28T20:52:12.093Z,7.58
2019-04-28T20:54:44.682Z,6.62
2019-04-28T20:57:17.296Z,6.90
2019-04-28T20:59:49.847Z,7.67
2019-04-28T21:02:22.243Z,7.30
2019-04-28T21:04:56.013Z,7.35
2019-04-28T21:07:29.321Z,9.63
2019-04-28T21:10:02.021Z,10.45
2019-04-28T21:12:35.358Z,10.25
2019-04-28T21:15:08.528Z,8.85
2019-04-28T21:17:40.930Z,9.08
2019-04-28T21:20:13.468Z,9.45
2019-04-28T21:22:46.323Z,8.38
2019-04-28T21:25:18.870Z,9.10
2019-04-28T21:27:51.986Z,9.40
2019-04-28T21:30:25.181Z,8.98
2019-04-28T21:32:58.028Z,9.63
2019-04-28T21:35:31.057Z,9.90
2019-04-28T21:38:03.722Z,9.50
2019-04-28T21:40:36.443Z,8.63
2019-04-28T21:43:11.754Z,9.20
2019-04-28T21:45:45.952Z,10.00
2019-04-28T21:48:20.383Z,9.05
2019-04-28T21:50:53.569Z,9.20
2019-04-28T21:53:26.659Z,10.40
2019-04-28T21:55:59.540Z,9.33
2019-04-28T21:58:33.655Z,10.08
2019-04-28T22:01:06.841Z,9.95
2019-04-28T22:03:40.736Z,9.50
2019-04-28T22:06:14.960Z,9.60
2019-04-28T22:08:47.946Z,9.90
2019-04-28T22:11:21.143Z,10.70
2019-04-28T22:13:54.275Z,10.72
2019-04-28T22:16:27.214Z,10.65
2019-04-28T22:19:00.507Z,12.80
2019-04-28T22:21:34.321Z,9.53
2019-04-28T22:24:10.269Z,10.18
2019-04-28T22:26:44.489Z,10.13
2019-04-28T22:29:18.979Z,10.10
2019-04-28T22:31:52.226Z,11.18
2019-04-28T22:34:25.178Z,11.85
2019-04-28T22:36:58.369Z,9.95
2019-04-28T22:39:31.557Z,9.63
2019-04-28T22:42:04.935Z,10.38
2019-04-28T22:44:37.413Z,9.80
2019-04-28T22:47:10.213Z,10.58
2019-04-28T22:49:42.602Z,12.23
2019-04-28T22:52:15.240Z,11.53
2019-04-28T22:54:49.270Z,11.30
2019-04-28T22:57:23.590Z,11.35
2019-04-28T22:59:57.707Z,10.38
2019-04-28T23:02:32.127Z,9.95
2019-04-28T23:05:09.408Z,11.33
2019-04-28T23:07:41.888Z,10.08
2019-04-28T23:10:15.592Z,11.33
2019-04-28T23:12:48.976Z,10.28
2019-04-28T23:15:21.754Z,9.93
2019-04-28T23:17:54.955Z,10.88
2019-04-28T23:20:30.394Z,10.13
2019-04-28T23:23:04.607Z,11.48
2019-04-28T23:25:37.622Z,10.58
2019-04-28T23:28:10.075Z,11.45
2019-04-28T23:30:44.914Z,11.40
2019-04-28T23:33:17.779Z,10.20
2019-04-28T23:35:50.979Z,10.65
2019-04-28T23:38:24.162Z,10.38
2019-04-28T23:40:58.480Z,10.28
2019-04-28T23:43:30.958Z,11.10
2019-04-28T23:46:03.582Z,11.03
2019-04-28T23:48:36.620Z,10.80
2019-04-28T23:51:08.901Z,10.75
2019-04-28T23:53:44.335Z,11.20
2019-04-28T23:56:17.250Z,11.18
2019-04-28T23:58:49.574Z,10.85
